Time;durP1;ratioP1;P1;durP2;ratioP2;P2;SDS_P1;SDS_P2;PMS_P1;PMS_P2;Temp;Humidity;BMP_temperature;BMP_pressure;BME280_temperature;BME280_humidity;BME280_pressure;Samples;Min_cycle;Max_cycle;Signal;HPM_P1;HPM_P2
2023/08/02 00:02:02;;;;;;;5.65;2.15;;;;;;;;;;7375466;19;20106;-74
2023/08/02 00:04:27;;;;;;;6.00;2.67;;;;;;;;;;7394815;19;20006;-73
2023/08/02 00:06:53;;;;;;;7.45;2.50;;;;;;;;;;7374962;19;20015;-74
2023/08/02 00:09:18;;;;;;;7.47;2.25;;;;;;;;;;7374031;19;20779;-75
2023/08/02 00:11:44;;;;;;;9.68;2.25;;;;;;;;;;7374647;19;20005;-74
2023/08/02 00:14:09;;;;;;;6.40;2.38;;;;;;;;;;7373115;19;20002;-73
2023/08/02 00:16:34;;;;;;;6.88;2.75;;;;;;;;;;7396140;19;20036;-74
2023/08/02 00:19:00;;;;;;;7.95;2.50;;;;;;;;;;7372443;19;20543;-74
2023/08/02 00:21:26;;;;;;;6.20;2.33;;;;;;;;;;7374379;19;20014;-74
2023/08/02 00:23:51;;;;;;;7.55;2.35;;;;;;;;;;7373752;19;20599;-74
2023/08/02 00:26:16;;;;;;;4.97;2.30;;;;;;;;;;7375055;19;20013;-74
2023/08/02 00:28:41;;;;;;;4.78;2.17;;;;;;;;;;7395520;19;20428;-74
2023/08/02 00:31:07;;;;;;;8.95;2.50;;;;;;;;;;7374162;19;20049;-73
2023/08/02 00:33:32;;;;;;;8.10;2.50;;;;;;;;;;7371339;19;20014;-73
2023/08/02 00:35:57;;;;;;;5.50;2.08;;;;;;;;;;7372853;19;20059;-73
2023/08/02 00:38:23;;;;;;;5.35;2.38;;;;;;;;;;7373314;19;20379;-74
2023/08/02 00:40:48;;;;;;;7.30;2.67;;;;;;;;;;7396200;19;19998;-74
2023/08/02 00:43:14;;;;;;;5.70;2.65;;;;;;;;;;7372825;19;20002;-74
2023/08/02 00:45:39;;;;;;;6.85;2.25;;;;;;;;;;7372844;19;20042;-74
2023/08/02 00:48:05;;;;;;;6.80;2.30;;;;;;;;;;7372770;19;20007;-74
2023/08/02 00:50:33;;;;;;;9.93;2.95;;;;;;;;;;7372209;19;20010;-74
2023/08/02 00:52:58;;;;;;;10.45;2.92;;;;;;;;;;7394336;19;20006;-74
2023/08/02 00:55:24;;;;;;;4.45;2.20;;;;;;;;;;7369904;19;19999;-74
2023/08/02 00:57:49;;;;;;;7.20;2.65;;;;;;;;;;7371072;19;20077;-75
2023/08/02 01:00:15;;;;;;;9.70;2.75;;;;;;;;;;7372383;19;20676;-73
2023/08/02 01:02:40;;;;;;;5.20;2.40;;;;;;;;;;7370959;19;20054;-74
2023/08/02 01:05:06;;;;;;;7.05;2.67;;;;;;;;;;7369246;19;20105;-73
2023/08/02 01:07:45;;;;;;;6.18;2.33;;;;;;;;;;7392797;19;20006;-73
2023/08/02 01:10:24;;;;;;;5.90;2.65;;;;;;;;;;7370910;19;20007;-73
2023/08/02 01:12:54;;;;;;;5.45;2.30;;;;;;;;;;7371679;19;20007;-73
2023/08/02 01:15:20;;;;;;;9.35;2.97;;;;;;;;;;7370326;19;20003;-73
2023/08/02 01:17:47;;;;;;;8.88;2.78;;;;;;;;;;7370234;19;20479;-73
2023/08/02 01:20:13;;;;;;;6.43;2.63;;;;;;;;;;7371335;19;20017;-73
2023/08/02 01:22:38;;;;;;;8.75;2.80;;;;;;;;;;7392833;19;20002;-73
2023/08/02 01:25:04;;;;;;;6.20;2.80;;;;;;;;;;7368175;19;20011;-72
2023/08/02 01:27:56;;;;;;;6.90;2.53;;;;;;;;;;7370667;19;20010;-72
2023/08/02 01:30:24;;;;;;;5.68;2.75;;;;;;;;;;7371189;19;20015;-72
2023/08/02 01:32:50;;;;;;;6.50;2.65;;;;;;;;;;7371141;19;20010;-72
2023/08/02 01:35:16;;;;;;;5.70;2.40;;;;;;;;;;7368256;19;20028;-73
2023/08/02 01:37:42;;;;;;;6.82;2.70;;;;;;;;;;7390442;19;20052;-73
2023/08/02 01:40:09;;;;;;;6.53;2.55;;;;;;;;;;7366761;19;20013;-73
2023/08/02 01:42:34;;;;;;;6.03;2.35;;;;;;;;;;7367740;19;20087;-73
2023/08/02 01:44:59;;;;;;;6.40;2.60;;;;;;;;;;7365443;19;20027;-72
2023/08/02 01:47:25;;;;;;;7.70;3.22;;;;;;;;;;7366704;19;20027;-73
2023/08/02 01:49:50;;;;;;;13.20;2.60;;;;;;;;;;7389712;19;20066;-73
2023/08/02 01:52:15;;;;;;;6.47;2.40;;;;;;;;;;7367536;19;20010;-73
2023/08/02 01:54:40;;;;;;;6.78;2.47;;;;;;;;;;7362248;19;20160;-72
2023/08/02 01:57:06;;;;;;;5.20;2.28;;;;;;;;;;7368871;19;20010;-75
2023/08/02 01:59:31;;;;;;;8.73;2.95;;;;;;;;;;7368162;19;20017;-73
2023/08/02 02:01:56;;;;;;;6.20;2.60;;;;;;;;;;7393310;19;19995;-74
2023/08/02 02:04:22;;;;;;;6.85;2.58;;;;;;;;;;7369826;19;20002;-72
2023/08/02 02:06:47;;;;;;;7.25;2.72;;;;;;;;;;7371471;19;20099;-73
2023/08/02 02:09:12;;;;;;;5.88;2.45;;;;;;;;;;7372749;19;20027;-74
2023/08/02 02:11:38;;;;;;;8.25;2.60;;;;;;;;;;7375820;19;20031;-73
2023/08/02 02:14:03;;;;;;;10.60;2.90;;;;;;;;;;7373144;19;20002;-73
2023/08/02 02:16:28;;;;;;;4.70;2.33;;;;;;;;;;7392332;19;19998;-73
2023/08/02 02:18:54;;;;;;;5.75;2.58;;;;;;;;;;7368971;19;20002;-73
2023/08/02 02:21:19;;;;;;;5.75;2.42;;;;;;;;;;7371107;19;20002;-73
2023/08/02 02:23:44;;;;;;;7.57;2.95;;;;;;;;;;7370051;19;20006;-73
2023/08/02 02:26:10;;;;;;;6.93;2.50;;;;;;;;;;7370479;19;20076;-73
2023/08/02 02:28:35;;;;;;;8.60;2.65;;;;;;;;;;7391996;19;20834;-73
2023/08/02 02:31:00;;;;;;;6.55;2.60;;;;;;;;;;7370659;19;20013;-74
2023/08/02 02:33:26;;;;;;;6.70;2.95;;;;;;;;;;7369124;19;20002;-73
2023/08/02 02:35:51;;;;;;;5.68;2.42;;;;;;;;;;7369728;19;20009;-74
2023/08/02 02:38:16;;;;;;;6.00;2.70;;;;;;;;;;7369424;19;20029;-73
2023/08/02 02:40:42;;;;;;;8.43;2.60;;;;;;;;;;7391746;19;20007;-74
2023/08/02 02:43:07;;;;;;;4.20;2.25;;;;;;;;;;7369482;19;20032;-73
2023/08/02 02:45:33;;;;;;;8.27;2.58;;;;;;;;;;7369559;19;20552;-74
2023/08/02 02:47:58;;;;;;;9.73;3.15;;;;;;;;;;7368412;19;20488;-74
2023/08/02 02:50:23;;;;;;;7.95;2.53;;;;;;;;;;7368836;19;20011;-73
2023/08/02 02:52:49;;;;;;;6.15;2.70;;;;;;;;;;7391436;19;20014;-73
2023/08/02 02:55:14;;;;;;;8.98;2.53;;;;;;;;;;7367339;19;20357;-72
2023/08/02 02:57:39;;;;;;;6.32;2.72;;;;;;;;;;7369321;19;20055;-72
2023/08/02 03:00:05;;;;;;;6.70;2.63;;;;;;;;;;7370196;19;20469;-72
2023/08/02 03:02:31;;;;;;;6.95;2.70;;;;;;;;;;7373692;19;20031;-74
2023/08/02 03:04:56;;;;;;;8.00;2.63;;;;;;;;;;7392033;19;20034;-73
2023/08/02 03:07:22;;;;;;;6.97;2.60;;;;;;;;;;7369121;19;20005;-73
2023/08/02 03:09:49;;;;;;;8.30;2.50;;;;;;;;;;7368899;19;20009;-73
2023/08/02 03:12:15;;;;;;;5.95;2.50;;;;;;;;;;7369534;19;20005;-74
2023/08/02 03:14:40;;;;;;;5.47;2.53;;;;;;;;;;7368141;19;20038;-74
2023/08/02 03:17:05;;;;;;;7.20;2.80;;;;;;;;;;7369016;19;20037;-73
2023/08/02 03:19:31;;;;;;;5.90;2.58;;;;;;;;;;7388954;19;20341;-73
2023/08/02 03:21:56;;;;;;;6.90;2.55;;;;;;;;;;7367860;19;20003;-73
2023/08/02 03:24:21;;;;;;;6.25;2.50;;;;;;;;;;7366741;19;19994;-73
2023/08/02 03:26:46;;;;;;;6.20;2.50;;;;;;;;;;7371517;19;20540;-72
2023/08/02 03:29:12;;;;;;;8.50;2.90;;;;;;;;;;7376159;19;19996;-73
2023/08/02 03:31:37;;;;;;;8.85;3.00;;;;;;;;;;7396741;19;20002;-73
2023/08/02 03:34:02;;;;;;;5.25;2.72;;;;;;;;;;7372039;19;20014;-73
2023/08/02 03:36:28;;;;;;;6.53;2.67;;;;;;;;;;7377795;19;20002;-73
2023/08/02 03:38:53;;;;;;;9.45;3.95;;;;;;;;;;7375853;19;20564;-73
2023/08/02 03:41:18;;;;;;;7.60;2.85;;;;;;;;;;7377401;19;19994;-73
2023/08/02 03:43:44;;;;;;;11.02;2.97;;;;;;;;;;7396607;19;20535;-73
2023/08/02 03:46:09;;;;;;;5.78;3.35;;;;;;;;;;7374752;19;20010;-73
2023/08/02 03:48:34;;;;;;;9.95;3.33;;;;;;;;;;7373762;19;20016;-73
2023/08/02 03:51:00;;;;;;;5.88;3.10;;;;;;;;;;7374910;19;20007;-72
2023/08/02 03:53:26;;;;;;;7.75;3.17;;;;;;;;;;7373339;19;20031;-73
2023/08/02 03:55:52;;;;;;;6.60;2.85;;;;;;;;;;7391075;19;20009;-73
2023/08/02 03:58:17;;;;;;;6.95;2.80;;;;;;;;;;7369643;19;20010;-72
2023/08/02 04:00:43;;;;;;;8.50;3.13;;;;;;;;;;7370827;19;20014;-72
2023/08/02 04:03:08;;;;;;;5.72;2.83;;;;;;;;;;7370030;19;20018;-73
2023/08/02 04:05:33;;;;;;;6.53;2.90;;;;;;;;;;7373898;19;21061;-73
2023/08/02 04:07:59;;;;;;;7.28;2.92;;;;;;;;;;7395191;19;20070;-72
2023/08/02 04:10:24;;;;;;;7.78;3.30;;;;;;;;;;7372765;19;20011;-73
2023/08/02 04:12:52;;;;;;;6.32;2.88;;;;;;;;;;7374092;19;20041;-73
2023/08/02 04:15:18;;;;;;;8.27;3.30;;;;;;;;;;7372862;19;20511;-73
2023/08/02 04:17:43;;;;;;;6.97;3.03;;;;;;;;;;7374736;19;20006;-73
2023/08/02 04:20:09;;;;;;;6.60;3.30;;;;;;;;;;7370626;19;20106;-74
2023/08/02 04:22:34;;;;;;;7.30;3.03;;;;;;;;;;7392137;19;20083;-73
2023/08/02 04:24:59;;;;;;;6.30;2.90;;;;;;;;;;7370201;19;20010;-73
2023/08/02 04:27:25;;;;;;;6.82;2.70;;;;;;;;;;7373681;19;20019;-73
2023/08/02 04:29:50;;;;;;;8.70;2.85;;;;;;;;;;7372714;19;20010;-72
2023/08/02 04:32:15;;;;;;;7.03;2.80;;;;;;;;;;7373631;19;20460;-72
2023/08/02 04:34:40;;;;;;;6.13;2.70;;;;;;;;;;7390573;19;20009;-72
2023/08/02 04:37:06;;;;;;;5.80;3.22;;;;;;;;;;7370190;19;20016;-73
2023/08/02 04:39:31;;;;;;;9.27;3.17;;;;;;;;;;7373983;19;20015;-72
2023/08/02 04:42:00;;;;;;;7.15;2.78;;;;;;;;;;7370966;19;20022;-73
2023/08/02 04:44:26;;;;;;;5.88;3.05;;;;;;;;;;7372542;19;20369;-72
2023/08/02 04:46:51;;;;;;;9.90;3.40;;;;;;;;;;7395040;19;20031;-73
2023/08/02 04:49:16;;;;;;;7.43;3.00;;;;;;;;;;7373849;19;19999;-73
2023/08/02 04:51:42;;;;;;;9.55;3.13;;;;;;;;;;7377518;19;20038;-72
2023/08/02 04:54:07;;;;;;;6.90;2.85;;;;;;;;;;7377165;19;20002;-73
2023/08/02 04:56:32;;;;;;;7.88;2.90;;;;;;;;;;7375597;19;20114;-67
2023/08/02 04:58:58;;;;;;;6.28;3.30;;;;;;;;;;7391415;19;20015;-67
2023/08/02 05:01:23;;;;;;;7.43;3.00;;;;;;;;;;7371499;19;21083;-66
2023/08/02 05:03:48;;;;;;;5.45;3.03;;;;;;;;;;7362099;19;20006;-66
2023/08/02 05:06:14;;;;;;;6.93;2.75;;;;;;;;;;7371040;19;20025;-66
2023/08/02 05:08:39;;;;;;;8.68;3.30;;;;;;;;;;7370990;19;20077;-66
2023/08/02 05:11:05;;;;;;;9.10;3.40;;;;;;;;;;7372084;19;20069;-66
2023/08/02 05:13:31;;;;;;;7.63;3.30;;;;;;;;;;7384377;19;20046;-66
2023/08/02 05:15:57;;;;;;;7.22;3.30;;;;;;;;;;7368321;19;20010;-66
2023/08/02 05:18:22;;;;;;;7.47;3.35;;;;;;;;;;7370498;19;20049;-66
2023/08/02 05:20:48;;;;;;;8.73;3.05;;;;;;;;;;7369435;19;20540;-66
2023/08/02 05:23:13;;;;;;;7.75;3.13;;;;;;;;;;7370540;19;20003;-67
2023/08/02 05:25:39;;;;;;;8.15;3.50;;;;;;;;;;7391497;19;20551;-66
2023/08/02 05:28:04;;;;;;;7.32;3.15;;;;;;;;;;7368810;19;20057;-66
2023/08/02 05:30:33;;;;;;;7.57;3.38;;;;;;;;;;7367986;19;20110;-66
2023/08/02 05:32:58;;;;;;;8.75;3.22;;;;;;;;;;7369306;19;20002;-66
2023/08/02 05:35:25;;;;;;;8.30;3.40;;;;;;;;;;7366304;19;20032;-65
2023/08/02 05:37:53;;;;;;;6.72;3.10;;;;;;;;;;7391213;19;20031;-65
2023/08/02 05:40:19;;;;;;;6.60;3.05;;;;;;;;;;7369467;19;19999;-66
2023/08/02 05:42:44;;;;;;;7.32;3.30;;;;;;;;;;7370492;19;20515;-67
2023/08/02 05:45:10;;;;;;;7.90;3.22;;;;;;;;;;7370122;19;20017;-67
2023/08/02 05:47:36;;;;;;;6.13;3.03;;;;;;;;;;7371316;19;20036;-66
2023/08/02 05:50:01;;;;;;;13.45;3.42;;;;;;;;;;7372565;19;20070;-66
2023/08/02 05:52:27;;;;;;;9.40;3.67;;;;;;;;;;7392637;19;20032;-66
2023/08/02 05:54:52;;;;;;;6.32;2.88;;;;;;;;;;7367064;19;20031;-67
2023/08/02 05:57:17;;;;;;;9.70;3.42;;;;;;;;;;7369350;19;20019;-67
2023/08/02 05:59:43;;;;;;;7.63;3.33;;;;;;;;;;7369307;19;20011;-67
2023/08/02 06:02:08;;;;;;;6.57;3.22;;;;;;;;;;7370789;19;19999;-67
2023/08/02 06:04:39;;;;;;;6.72;3.28;;;;;;;;;;7390351;19;20006;-67
2023/08/02 06:07:05;;;;;;;7.38;3.38;;;;;;;;;;7370919;19;20100;-67
2023/08/02 06:09:31;;;;;;;6.75;2.85;;;;;;;;;;7368334;19;20500;-70
2023/08/02 06:11:56;;;;;;;7.57;3.17;;;;;;;;;;7370664;19;20017;-75
2023/08/02 06:14:22;;;;;;;7.80;3.78;;;;;;;;;;7369572;19;20010;-74
2023/08/02 06:16:47;;;;;;;4.75;2.65;;;;;;;;;;7395119;19;20006;-75
2023/08/02 06:19:13;;;;;;;6.75;3.28;;;;;;;;;;7373750;19;20024;-75
2023/08/02 06:21:38;;;;;;;11.50;3.63;;;;;;;;;;7374926;19;20377;-75
2023/08/02 06:24:03;;;;;;;11.07;3.92;;;;;;;;;;7369266;19;20010;-75
2023/08/02 06:26:29;;;;;;;8.00;3.38;;;;;;;;;;7355274;19;20393;-76
2023/08/02 06:28:55;;;;;;;11.45;3.30;;;;;;;;;;7391915;19;20373;-76
2023/08/02 06:31:20;;;;;;;7.30;3.17;;;;;;;;;;7369957;19;20066;-75
2023/08/02 06:33:46;;;;;;;6.30;3.50;;;;;;;;;;7367761;19;20151;-75
2023/08/02 06:36:11;;;;;;;11.02;3.78;;;;;;;;;;7363244;19;20003;-75
2023/08/02 06:38:36;;;;;;;6.47;3.40;;;;;;;;;;7366765;19;20022;-75
2023/08/02 06:41:02;;;;;;;9.57;3.80;;;;;;;;;;7365264;19;20051;-75
2023/08/02 06:43:28;;;;;;;9.00;4.20;;;;;;;;;;7386859;19;20033;-76
2023/08/02 06:45:53;;;;;;;7.05;3.67;;;;;;;;;;7364893;19;20484;-75
2023/08/02 06:48:21;;;;;;;11.38;3.80;;;;;;;;;;7366185;19;20019;-76
2023/08/02 06:50:47;;;;;;;10.32;3.97;;;;;;;;;;7366872;19;20002;-75
2023/08/02 06:53:12;;;;;;;8.05;4.28;;;;;;;;;;7376102;19;20015;-74
2023/08/02 06:55:38;;;;;;;7.95;4.22;;;;;;;;;;7406498;19;20036;-75
2023/08/02 06:58:03;;;;;;;6.88;3.90;;;;;;;;;;7374497;19;20017;-74
2023/08/02 07:00:29;;;;;;;6.63;4.40;;;;;;;;;;7377765;19;20010;-75
2023/08/02 07:02:58;;;;;;;9.00;4.03;;;;;;;;;;7369304;19;20128;-75
2023/08/02 07:05:25;;;;;;;6.93;4.07;;;;;;;;;;7367322;19;20014;-75
2023/08/02 07:07:50;;;;;;;7.05;4.32;;;;;;;;;;7389815;19;20010;-74
2023/08/02 07:10:16;;;;;;;8.32;4.50;;;;;;;;;;7367779;19;20010;-74
2023/08/02 07:12:41;;;;;;;7.03;4.00;;;;;;;;;;7368447;19;20019;-73
2023/08/02 07:15:07;;;;;;;7.30;4.75;;;;;;;;;;7367104;19;20082;-74
2023/08/02 07:17:32;;;;;;;9.40;4.75;;;;;;;;;;7368145;19;20019;-75
2023/08/02 07:19:57;;;;;;;9.63;4.88;;;;;;;;;;7387526;19;20457;-76
2023/08/02 07:22:23;;;;;;;6.68;4.22;;;;;;;;;;7367423;19;20018;-75
2023/08/02 07:24:48;;;;;;;7.22;4.50;;;;;;;;;;7365739;19;20011;-74
2023/08/02 07:27:13;;;;;;;8.55;4.25;;;;;;;;;;7367967;19;20010;-74
2023/08/02 07:29:38;;;;;;;7.72;4.20;;;;;;;;;;7367418;19;20014;-73
2023/08/02 07:32:04;;;;;;;6.45;4.03;;;;;;;;;;7368629;19;20463;-75
2023/08/02 07:34:30;;;;;;;7.28;3.92;;;;;;;;;;7387309;19;19999;-74
2023/08/02 07:36:55;;;;;;;7.78;4.10;;;;;;;;;;7365807;19;20007;-75
2023/08/02 07:39:20;;;;;;;5.97;3.80;;;;;;;;;;7367553;19;20011;-74
2023/08/02 07:41:45;;;;;;;5.22;3.05;;;;;;;;;;7364827;19;20547;-75
2023/08/02 07:44:13;;;;;;;6.45;3.63;;;;;;;;;;7364230;19;19999;-75
2023/08/02 07:46:39;;;;;;;7.35;3.50;;;;;;;;;;7388744;19;20014;-74
2023/08/02 07:49:04;;;;;;;5.72;3.28;;;;;;;;;;7367161;19;20014;-74
2023/08/02 07:51:29;;;;;;;5.38;3.33;;;;;;;;;;7366448;19;20015;-76
2023/08/02 07:53:54;;;;;;;6.00;3.00;;;;;;;;;;7366118;19;20031;-75
2023/08/02 07:56:21;;;;;;;5.50;3.13;;;;;;;;;;7367531;19;20003;-76
2023/08/02 07:58:46;;;;;;;6.15;3.20;;;;;;;;;;7388187;19;20048;-76
2023/08/02 08:01:12;;;;;;;5.93;3.28;;;;;;;;;;7366530;19;20007;-76
2023/08/02 08:03:37;;;;;;;5.72;2.75;;;;;;;;;;7365832;19;20047;-75
2023/08/02 08:06:11;;;;;;;7.00;2.92;;;;;;;;;;7367582;19;20126;-75
2023/08/02 08:08:36;;;;;;;5.63;2.80;;;;;;;;;;7367057;19;20022;-74
2023/08/02 08:11:01;;;;;;;6.40;3.05;;;;;;;;;;7369733;19;19999;-75
2023/08/02 08:13:27;;;;;;;6.53;3.10;;;;;;;;;;7392403;19;20078;-76
2023/08/02 08:15:52;;;;;;;7.40;3.15;;;;;;;;;;7373660;19;20018;-76
2023/08/02 08:18:17;;;;;;;4.93;2.95;;;;;;;;;;7373533;19;20089;-76
2023/08/02 08:20:43;;;;;;;5.47;3.03;;;;;;;;;;7374216;19;20534;-75
2023/08/02 08:23:08;;;;;;;5.53;3.47;;;;;;;;;;7373473;19;20024;-75
2023/08/02 08:25:33;;;;;;;6.38;3.20;;;;;;;;;;7395199;19;20100;-77
2023/08/02 08:27:59;;;;;;;5.22;3.20;;;;;;;;;;7373157;19;20022;-75
2023/08/02 08:30:24;;;;;;;5.97;3.00;;;;;;;;;;7373054;19;20078;-76
2023/08/02 08:32:49;;;;;;;6.30;3.30;;;;;;;;;;7373428;19;20011;-74
2023/08/02 08:35:14;;;;;;;6.28;3.42;;;;;;;;;;7369923;19;20014;-74
2023/08/02 08:37:40;;;;;;;5.95;3.38;;;;;;;;;;7394650;19;20457;-74
2023/08/02 08:40:06;;;;;;;7.72;3.75;;;;;;;;;;7370291;19;20007;-75
2023/08/02 08:42:32;;;;;;;5.75;3.30;;;;;;;;;;7372268;19;20002;-75
2023/08/02 08:44:58;;;;;;;7.10;3.50;;;;;;;;;;7370822;19;20090;-76
2023/08/02 08:47:26;;;;;;;6.45;3.42;;;;;;;;;;7371880;19;20064;-76
2023/08/02 08:49:51;;;;;;;6.90;3.03;;;;;;;;;;7393491;19;20104;-76
2023/08/02 08:52:19;;;;;;;4.85;2.70;;;;;;;;;;7370962;19;20032;-76
2023/08/02 08:54:46;;;;;;;7.32;2.97;;;;;;;;;;7370397;19;20508;-76
2023/08/02 08:57:12;;;;;;;6.53;3.05;;;;;;;;;;7372215;19;20012;-76
2023/08/02 08:59:39;;;;;;;5.90;2.85;;;;;;;;;;7371720;19;20010;-76
2023/08/02 09:02:05;;;;;;;4.50;2.67;;;;;;;;;;7372938;19;20019;-77
2023/08/02 09:04:32;;;;;;;6.28;2.72;;;;;;;;;;7392292;19;20010;-76
2023/08/02 09:06:57;;;;;;;3.55;2.30;;;;;;;;;;7372054;19;20011;-76
2023/08/02 09:09:22;;;;;;;4.80;2.67;;;;;;;;;;7370882;19;20365;-76
2023/08/02 09:11:49;;;;;;;4.90;2.38;;;;;;;;;;7372932;19;20015;-77
2023/08/02 09:14:16;;;;;;;5.43;2.20;;;;;;;;;;7371348;19;20695;-75
2023/08/02 09:17:01;;;;;;;3.10;2.17;;;;;;;;;;7395500;19;20083;-75
2023/08/02 09:19:28;;;;;;;8.20;2.53;;;;;;;;;;7370068;19;20099;-76
2023/08/02 09:22:08;;;;;;;4.10;2.40;;;;;;;;;;7371564;19;20006;-75
2023/08/02 09:24:39;;;;;;;4.40;2.80;;;;;;;;;;7369753;19;20006;-75
2023/08/02 09:27:06;;;;;;;6.30;2.87;;;;;;;;;;7372744;19;20003;-76
2023/08/02 09:29:43;;;;;;;5.13;2.90;;;;;;;;;;7370544;19;20047;-78
2023/08/02 09:32:09;;;;;;;5.20;2.85;;;;;;;;;;7371775;19;20389;-76
2023/08/02 09:34:44;;;;;;;4.57;2.97;;;;;;;;;;7390806;19;20020;-76
2023/08/02 09:37:14;;;;;;;5.90;2.83;;;;;;;;;;7371362;19;20006;-76
2023/08/02 09:39:47;;;;;;;5.43;3.05;;;;;;;;;;7368889;19;20014;-76
2023/08/02 09:42:17;;;;;;;6.13;3.30;;;;;;;;;;7371358;19;20374;-76
2023/08/02 09:44:53;;;;;;;6.63;3.42;;;;;;;;;;7369287;19;20373;-76
2023/08/02 09:47:18;;;;;;;5.57;3.30;;;;;;;;;;7372068;19;20007;-76
2023/08/02 09:49:44;;;;;;;6.35;3.42;;;;;;;;;;7392811;19;20015;-76
2023/08/02 09:52:09;;;;;;;5.50;2.90;;;;;;;;;;7370420;19;20015;-75
2023/08/02 09:54:34;;;;;;;6.35;3.10;;;;;;;;;;7369426;19;20098;-75
2023/08/02 09:57:02;;;;;;;6.60;2.95;;;;;;;;;;7371851;19;20015;-75
2023/08/02 09:59:29;;;;;;;7.25;2.80;;;;;;;;;;7370436;19;20006;-75
2023/08/02 10:01:55;;;;;;;5.43;2.70;;;;;;;;;;7391579;19;20341;-76
2023/08/02 10:04:24;;;;;;;6.50;2.53;;;;;;;;;;7368978;19;20010;-76
2023/08/02 10:06:55;;;;;;;5.15;2.50;;;;;;;;;;7369854;19;20057;-75
2023/08/02 10:09:25;;;;;;;4.90;2.40;;;;;;;;;;7371584;19;20007;-76
2023/08/02 10:11:58;;;;;;;4.80;2.50;;;;;;;;;;7373564;19;20015;-76
2023/08/02 10:14:23;;;;;;;5.55;2.30;;;;;;;;;;7368280;19;20015;-76
2023/08/02 10:16:51;;;;;;;4.80;2.30;;;;;;;;;;7391347;19;20003;-75
2023/08/02 10:19:17;;;;;;;3.28;2.10;;;;;;;;;;7367192;19;20023;-76
2023/08/02 10:21:46;;;;;;;3.33;2.10;;;;;;;;;;7365322;19;20015;-76
2023/08/02 10:24:12;;;;;;;4.35;2.13;;;;;;;;;;7365244;19;19999;-75
2023/08/02 10:26:38;;;;;;;3.60;2.25;;;;;;;;;;7366092;19;20010;-77
2023/08/02 10:29:04;;;;;;;4.22;2.20;;;;;;;;;;7366692;19;20005;-75
2023/08/02 10:31:30;;;;;;;4.57;2.17;;;;;;;;;;7388200;19;20035;-77
2023/08/02 10:33:55;;;;;;;3.22;2.13;;;;;;;;;;7365458;19;20006;-78
2023/08/02 10:36:23;;;;;;;3.20;2.05;;;;;;;;;;7369063;19;20044;-77
2023/08/02 10:38:54;;;;;;;3.72;2.50;;;;;;;;;;7368286;19;20371;-75
2023/08/02 10:41:23;;;;;;;4.38;2.45;;;;;;;;;;7369058;19;20007;-76
2023/08/02 10:43:52;;;;;;;4.97;2.58;;;;;;;;;;7388317;19;20828;-74
2023/08/02 10:46:24;;;;;;;3.60;2.40;;;;;;;;;;7368308;19;20000;-76
2023/08/02 10:48:50;;;;;;;3.28;2.05;;;;;;;;;;7370135;19;20041;-76
2023/08/02 10:51:31;;;;;;;3.60;2.10;;;;;;;;;;7372670;19;20014;-76
2023/08/02 10:54:19;;;;;;;4.53;2.10;;;;;;;;;;7383310;19;20062;-75
2023/08/02 10:56:53;;;;;;;4.75;2.25;;;;;;;;;;7375925;19;20122;-74
2023/08/02 10:59:36;;;;;;;3.22;2.13;;;;;;;;;;7375225;19;20014;-74
2023/08/02 11:02:07;;;;;;;3.67;2.10;;;;;;;;;;7377262;19;19998;-75
2023/08/02 11:04:34;;;;;;;3.13;2.10;;;;;;;;;;7389292;19;20078;-76
2023/08/02 11:07:12;;;;;;;3.78;2.00;;;;;;;;;;7367992;19;20580;-76
2023/08/02 11:09:37;;;;;;;4.10;2.20;;;;;;;;;;7367164;19;20067;-76
2023/08/02 11:12:13;;;;;;;3.05;1.92;;;;;;;;;;7368386;19;20002;-75
2023/08/02 11:14:39;;;;;;;3.47;2.20;;;;;;;;;;7368611;19;20074;-76
2023/08/02 11:17:05;;;;;;;3.67;1.98;;;;;;;;;;7368589;19;20404;-75
2023/08/02 11:19:31;;;;;;;3.20;2.10;;;;;;;;;;7388073;19;19995;-75
2023/08/02 11:21:58;;;;;;;4.43;2.10;;;;;;;;;;7367822;19;20014;-75
2023/08/02 11:24:23;;;;;;;4.38;2.33;;;;;;;;;;7366969;19;20395;-77
2023/08/02 11:26:59;;;;;;;3.88;2.08;;;;;;;;;;7368303;19;20010;-76
2023/08/02 11:29:25;;;;;;;3.13;2.05;;;;;;;;;;7367804;19;20009;-76
2023/08/02 11:31:52;;;;;;;5.53;1.92;;;;;;;;;;7390490;19;20006;-77
2023/08/02 11:34:18;;;;;;;4.60;2.50;;;;;;;;;;7366152;19;20473;-76
2023/08/02 11:36:48;;;;;;;3.28;2.08;;;;;;;;;;7367689;19;20011;-76
2023/08/02 11:39:17;;;;;;;2.92;1.88;;;;;;;;;;7367648;19;20014;-77
2023/08/02 11:41:42;;;;;;;3.30;1.80;;;;;;;;;;7368080;19;20006;-78
2023/08/02 11:44:19;;;;;;;4.07;2.40;;;;;;;;;;7366306;19;19999;-76
2023/08/02 11:46:52;;;;;;;3.80;2.10;;;;;;;;;;7388551;19;20499;-75
2023/08/02 11:49:18;;;;;;;2.28;1.75;;;;;;;;;;7374101;19;20018;-76
2023/08/02 11:51:43;;;;;;;3.40;2.00;;;;;;;;;;7373767;19;20048;-76
2023/08/02 11:54:09;;;;;;;2.58;1.92;;;;;;;;;;7372734;19;20010;-77
2023/08/02 11:56:35;;;;;;;2.90;1.70;;;;;;;;;;7374998;19;20007;-76
2023/08/02 11:59:01;;;;;;;3.70;1.85;;;;;;;;;;7385300;19;20031;-76
2023/08/02 12:01:27;;;;;;;3.08;1.90;;;;;;;;;;7392361;19;20006;-76
2023/08/02 12:03:56;;;;;;;2.88;1.95;;;;;;;;;;7373064;19;20110;-76
2023/08/02 12:06:22;;;;;;;3.47;2.13;;;;;;;;;;7374322;19;20003;-76
2023/08/02 12:09:00;;;;;;;2.72;1.80;;;;;;;;;;7375005;19;20015;-75
2023/08/02 12:11:25;;;;;;;4.72;2.00;;;;;;;;;;7373565;19;20018;-76
2023/08/02 12:13:51;;;;;;;3.75;1.73;;;;;;;;;;7394828;19;20007;-76
2023/08/02 12:16:17;;;;;;;3.03;2.00;;;;;;;;;;7373689;19;20110;-76
2023/08/02 12:19:10;;;;;;;3.97;1.92;;;;;;;;;;7372396;19;20010;-76
2023/08/02 12:21:35;;;;;;;3.95;2.00;;;;;;;;;;7371455;19;19999;-76
2023/08/02 12:24:21;;;;;;;3.20;1.83;;;;;;;;;;7371086;19;20017;-75
2023/08/02 12:26:46;;;;;;;4.03;1.98;;;;;;;;;;7372962;19;20014;-74
2023/08/02 12:29:24;;;;;;;3.58;2.05;;;;;;;;;;7373415;19;20624;-76
2023/08/02 12:31:49;;;;;;;3.10;1.90;;;;;;;;;;7394728;19;20010;-75
2023/08/02 12:34:15;;;;;;;4.78;2.13;;;;;;;;;;7369543;19;20033;-75
2023/08/02 12:36:40;;;;;;;3.22;1.90;;;;;;;;;;7372230;19;20032;-76
2023/08/02 12:39:05;;;;;;;4.57;2.05;;;;;;;;;;7370797;19;20014;-76
2023/08/02 12:41:31;;;;;;;4.10;2.20;;;;;;;;;;7373459;19;20031;-75
2023/08/02 12:43:56;;;;;;;4.18;2.30;;;;;;;;;;7392189;19;20018;-76
2023/08/02 12:46:22;;;;;;;2.92;2.03;;;;;;;;;;7372418;19;20429;-77
2023/08/02 12:48:49;;;;;;;3.05;1.95;;;;;;;;;;7373054;19;20013;-75
2023/08/02 12:51:14;;;;;;;3.75;1.73;;;;;;;;;;7373200;19;20043;-77
2023/08/02 12:53:40;;;;;;;4.72;2.03;;;;;;;;;;7372448;19;20014;-76
2023/08/02 12:56:05;;;;;;;4.03;1.92;;;;;;;;;;7372204;19;20514;-76
2023/08/02 12:58:31;;;;;;;3.25;2.05;;;;;;;;;;7391514;19;20007;-76
2023/08/02 13:00:56;;;;;;;4.82;1.70;;;;;;;;;;7372075;19;20089;-76
2023/08/02 13:03:22;;;;;;;3.58;1.90;;;;;;;;;;7372998;19;20010;-76
2023/08/02 13:05:47;;;;;;;2.97;1.70;;;;;;;;;;7374100;19;20467;-76
2023/08/02 13:08:15;;;;;;;2.85;1.88;;;;;;;;;;7373349;19;20005;-76
2023/08/02 13:10:41;;;;;;;2.78;1.70;;;;;;;;;;7395201;19;20440;-75
2023/08/02 13:13:07;;;;;;;2.10;1.50;;;;;;;;;;7372816;19;20018;-76
2023/08/02 13:15:32;;;;;;;2.65;1.60;;;;;;;;;;7371595;19;20044;-76
2023/08/02 13:17:58;;;;;;;2.22;1.50;;;;;;;;;;7372691;19;20003;-76
2023/08/02 13:20:23;;;;;;;2.50;1.50;;;;;;;;;;7370218;19;20011;-76
2023/08/02 13:22:49;;;;;;;2.65;1.60;;;;;;;;;;7393756;19;20015;-76
2023/08/02 13:25:14;;;;;;;2.60;1.38;;;;;;;;;;7369325;19;20010;-76
2023/08/02 13:27:39;;;;;;;2.85;1.50;;;;;;;;;;7371673;19;20018;-76
2023/08/02 13:30:05;;;;;;;3.17;1.30;;;;;;;;;;7371771;19;20003;-76
2023/08/02 13:32:34;;;;;;;1.55;1.25;;;;;;;;;;7371029;19;20022;-76
2023/08/02 13:35:06;;;;;;;1.80;1.30;;;;;;;;;;7390776;19;20029;-77
2023/08/02 13:37:33;;;;;;;2.42;1.40;;;;;;;;;;7372217;19;20011;-78
2023/08/02 13:39:59;;;;;;;1.75;1.30;;;;;;;;;;7368934;19;20031;-77
2023/08/02 13:42:24;;;;;;;3.47;1.50;;;;;;;;;;7371549;19;20015;-76
2023/08/02 13:44:51;;;;;;;2.90;1.48;;;;;;;;;;7369694;19;20011;-78
2023/08/02 13:47:16;;;;;;;1.48;1.30;;;;;;;;;;7371673;19;19999;-76
2023/08/02 13:49:41;;;;;;;2.72;1.45;;;;;;;;;;7392753;19;20010;-77
2023/08/02 13:52:07;;;;;;;2.30;1.50;;;;;;;;;;7370842;19;20097;-76
2023/08/02 13:54:32;;;;;;;3.80;1.70;;;;;;;;;;7369626;19;20022;-76
2023/08/02 13:56:57;;;;;;;3.08;1.60;;;;;;;;;;7371514;19;20130;-75
2023/08/02 13:59:23;;;;;;;3.28;1.70;;;;;;;;;;7370204;19;20042;-77
2023/08/02 14:01:48;;;;;;;3.08;1.95;;;;;;;;;;7392384;19;20014;-75
2023/08/02 14:04:13;;;;;;;4.40;2.00;;;;;;;;;;7367963;19;20047;-76
2023/08/02 14:06:38;;;;;;;4.45;2.30;;;;;;;;;;7370065;19;20006;-76
2023/08/02 14:09:04;;;;;;;3.30;2.17;;;;;;;;;;7369364;19;20509;-76
2023/08/02 14:11:29;;;;;;;5.63;2.40;;;;;;;;;;7367991;19;20017;-76
2023/08/02 14:13:54;;;;;;;4.32;2.38;;;;;;;;;;7391139;19;20027;-76
2023/08/02 14:16:20;;;;;;;5.53;2.33;;;;;;;;;;7369306;19;20514;-77
2023/08/02 14:18:45;;;;;;;4.68;2.70;;;;;;;;;;7369424;19;20011;-77
2023/08/02 14:21:10;;;;;;;4.63;2.45;;;;;;;;;;7368075;19;20077;-75
2023/08/02 14:23:36;;;;;;;4.65;2.50;;;;;;;;;;7368759;19;20042;-78
2023/08/02 14:26:01;;;;;;;3.70;2.28;;;;;;;;;;7380021;19;20044;-77
2023/08/02 14:28:27;;;;;;;3.85;2.30;;;;;;;;;;7391431;19;20006;-76
2023/08/02 14:30:52;;;;;;;3.70;2.22;;;;;;;;;;7369759;19;20014;-76
2023/08/02 14:33:17;;;;;;;2.50;1.83;;;;;;;;;;7368389;19;20014;-76
2023/08/02 14:35:42;;;;;;;4.70;1.92;;;;;;;;;;7368567;19;20089;-77
2023/08/02 14:38:08;;;;;;;4.32;1.88;;;;;;;;;;7368427;19;20070;-75
2023/08/02 14:40:34;;;;;;;3.50;2.20;;;;;;;;;;7388925;19;20758;-75